Edgerton, Missouri
Current Conditions -  °F | °C
As of 10:46 AM on Friday 24 Oct 2014 (Local Time) from KMCI Reporting Station
Overcast Overcast  
Wind Chill: 62°   Ceiling: 25000
Heat Index: 62°   Visibility: 7mi
Dew Point: 59°   Wind: 9mph
Humidity: 90%   Direction: 200°SSW
Pressure: 30.04"   Gusts: NA
Location:  39.5°N, 94.63°W
Report Text: KMCI 241546Z 20008KT 7SM SCT008 OVC250 17/15 A3004 RMK AO2 T01670150
Loading
Personal Weather Stations






























Interactive Weather Map
Tropical Storm Tracking
New forecast layout! Learn more

10-Day Weather Forecast

Advertisements
Track Severe Weather on mobile